Lawrenceville, Arkansas
Current Conditions -  °F | °C
As of 5:15 AM on Saturday 01 Nov 2014 (Local Time) from KSGT Reporting Station
Clear Clear  
Wind Chill: 26°   Ceiling: Unl
Heat Index: 34°   Visibility: 10mi
Dew Point: 25°   Wind: 9mph
Humidity: 70%   Direction: 360°N
Pressure: 30.41"   Gusts: NA
Location:  34.5919°N, 91.1409°W
Report Text: KSGT 011015Z AUTO 36008KT 10SM CLR 01/M04 A3041 RMK AO1
Loading
Personal Weather Stations






























Interactive Weather Map
Tropical Storm Tracking
New forecast layout! Learn more

10-Day Weather Forecast

Advertisements
Track Severe Weather on mobile